createdAt,value
2022-09-06T00:00:08.275Z,69.36
2022-09-06T00:02:43.472Z,69.81
2022-09-06T00:05:15.604Z,70.14
2022-09-06T00:07:47.917Z,70.64
2022-09-06T00:10:20.242Z,70.93
2022-09-06T00:12:52.388Z,71.02
2022-09-06T00:15:24.452Z,70.83
2022-09-06T00:17:57.871Z,70.75
2022-09-06T00:20:31.106Z,70.56
2022-09-06T00:23:05.771Z,70.26
2022-09-06T00:25:37.854Z,70.13
2022-09-06T00:28:09.945Z,69.79
2022-09-06T00:30:41.999Z,69.68
2022-09-06T00:33:15.383Z,69.78
2022-09-06T00:35:49.011Z,70.03
2022-09-06T00:38:21.241Z,69.87
2022-09-06T00:40:53.694Z,69.90
2022-09-06T00:43:26.188Z,70.25
2022-09-06T00:45:58.418Z,70.60
2022-09-06T00:48:30.578Z,70.94
2022-09-06T00:51:05.437Z,71.12
2022-09-06T00:53:37.427Z,71.21
2022-09-06T00:56:09.913Z,71.23
2022-09-06T00:58:42.148Z,71.00
2022-09-06T01:01:14.514Z,70.84
2022-09-06T01:03:46.535Z,70.72
2022-09-06T01:06:27.809Z,70.68
2022-09-06T01:09:22.289Z,70.79
2022-09-06T01:12:16.614Z,70.84
2022-09-06T01:15:03.524Z,70.73
2022-09-06T01:18:03.908Z,70.58
2022-09-06T01:20:42.010Z,70.55
2022-09-06T01:23:23.107Z,70.48
2022-09-06T01:26:00.940Z,70.43
2022-09-06T01:28:38.598Z,70.67
2022-09-06T01:31:28.514Z,70.71
2022-09-06T01:34:24.419Z,70.55
2022-09-06T01:37:10.390Z,70.61
2022-09-06T01:39:41.307Z,70.38
2022-09-06T01:42:22.426Z,70.14
2022-09-06T01:45:00.794Z,70.01
2022-09-06T01:47:40.130Z,69.99
2022-09-06T01:50:21.233Z,69.99
2022-09-06T01:53:05.295Z,70.00
2022-09-06T01:56:14.956Z,70.18
2022-09-06T01:59:04.855Z,70.14
2022-09-06T02:01:59.126Z,70.03
2022-09-06T02:04:36.868Z,69.81
2022-09-06T02:07:23.615Z,69.94
2022-09-06T02:10:16.623Z,69.99
2022-09-06T02:12:51.578Z,70.23
2022-09-06T02:15:26.577Z,70.30
2022-09-06T02:18:04.319Z,70.58
2022-09-06T02:20:39.392Z,70.74
2022-09-06T02:23:12.819Z,70.70
2022-09-06T02:25:50.909Z,70.55
2022-09-06T02:28:23.641Z,70.62
2022-09-06T02:30:58.674Z,70.25
2022-09-06T02:33:33.552Z,70.38
2022-09-06T02:36:08.690Z,70.47
2022-09-06T02:38:42.465Z,70.34
2022-09-06T02:41:18.547Z,70.23
2022-09-06T02:43:51.087Z,70.12
2022-09-06T02:46:24.502Z,69.81
2022-09-06T02:48:56.665Z,69.60
2022-09-06T02:51:28.822Z,69.66
2022-09-06T02:54:00.874Z,69.63
2022-09-06T02:56:33.866Z,68.79
2022-09-06T02:59:06.995Z,68.65
2022-09-06T03:01:39.349Z,68.73
2022-09-06T03:04:11.520Z,68.62
2022-09-06T03:06:43.577Z,68.69
2022-09-06T03:09:15.675Z,68.69
2022-09-06T03:11:47.958Z,68.96
2022-09-06T03:14:20.125Z,69.04
2022-09-06T03:16:52.203Z,68.96
2022-09-06T03:19:24.225Z,68.96
2022-09-06T03:21:56.241Z,68.88
2022-09-06T03:24:28.358Z,68.88
2022-09-06T03:27:00.390Z,68.42
2022-09-06T03:29:32.618Z,68.50
2022-09-06T03:32:04.783Z,68.16
2022-09-06T03:34:37.125Z,68.85
2022-09-06T03:37:09.171Z,69.05
2022-09-06T03:39:41.414Z,69.36
2022-09-06T03:42:13.517Z,69.59
2022-09-06T03:44:45.938Z,70.02
2022-09-06T03:47:19.719Z,70.22
2022-09-06T03:49:52.208Z,69.02
2022-09-06T03:52:24.519Z,69.87
2022-09-06T03:54:57.054Z,69.44
2022-09-06T03:57:29.047Z,70.06
2022-09-06T04:00:01.260Z,70.06
2022-09-06T04:02:35.148Z,69.65
2022-09-06T04:05:08.010Z,69.39
2022-09-06T04:07:40.384Z,69.22
2022-09-06T04:10:12.851Z,68.12
2022-09-06T04:12:46.863Z,68.47
2022-09-06T04:15:18.982Z,68.12
2022-09-06T04:17:51.712Z,68.23
2022-09-06T04:20:24.624Z,68.04
2022-09-06T04:22:56.847Z,68.72
2022-09-06T04:25:28.822Z,68.29
2022-09-06T04:28:01.077Z,68.12
2022-09-06T04:30:33.347Z,67.35
2022-09-06T04:33:05.843Z,67.37
2022-09-06T04:35:38.902Z,66.72
2022-09-06T04:38:11.411Z,66.92
2022-09-06T04:40:43.677Z,67.10
2022-09-06T04:43:16.350Z,66.79
2022-09-06T04:45:48.736Z,67.03
2022-09-06T04:48:21.321Z,66.70
2022-09-06T04:50:53.353Z,66.61
2022-09-06T04:53:25.378Z,66.51
2022-09-06T04:55:59.386Z,66.18
2022-09-06T04:58:31.414Z,65.96
2022-09-06T05:01:04.011Z,65.52
2022-09-06T05:03:36.361Z,64.47
2022-09-06T05:06:11.127Z,64.56
2022-09-06T05:08:43.763Z,63.82
2022-09-06T05:11:16.519Z,63.06
2022-09-06T05:13:50.518Z,63.10
2022-09-06T05:16:23.186Z,63.35
2022-09-06T05:18:55.922Z,63.12
2022-09-06T05:21:28.469Z,61.61
2022-09-06T05:24:00.696Z,61.96
2022-09-06T05:26:32.761Z,61.18
2022-09-06T05:29:04.961Z,60.37
2022-09-06T05:31:37.771Z,60.51
2022-09-06T05:34:10.627Z,59.91
2022-09-06T05:36:42.829Z,59.21
2022-09-06T05:39:15.168Z,59.51
2022-09-06T05:41:47.577Z,58.64
2022-09-06T05:44:21.039Z,58.50
2022-09-06T05:46:53.740Z,58.33
2022-09-06T05:49:26.109Z,57.72
2022-09-06T05:51:58.954Z,58.28
2022-09-06T05:54:30.977Z,58.46
2022-09-06T05:57:03.512Z,58.82
2022-09-06T05:59:35.910Z,59.19
2022-09-06T06:02:08.143Z,59.07
2022-09-06T06:04:40.287Z,58.51
2022-09-06T06:07:12.551Z,58.35
2022-09-06T06:09:44.985Z,57.96
2022-09-06T06:12:17.087Z,57.37
2022-09-06T06:14:49.168Z,57.03
2022-09-06T06:17:21.691Z,57.12
2022-09-06T06:19:54.793Z,56.52
2022-09-06T06:22:26.925Z,56.93
2022-09-06T06:24:59.116Z,56.13
2022-09-06T06:27:34.990Z,56.25
2022-09-06T06:30:08.283Z,54.52
2022-09-06T06:32:40.685Z,54.03
2022-09-06T06:35:12.860Z,54.15
2022-09-06T06:37:45.972Z,54.50
2022-09-06T06:40:18.247Z,54.96
2022-09-06T06:42:50.758Z,55.61
2022-09-06T06:45:22.932Z,55.94
2022-09-06T06:47:55.113Z,56.28
2022-09-06T06:50:27.694Z,57.06
2022-09-06T06:52:59.829Z,55.57
2022-09-06T06:55:32.087Z,56.26
2022-09-06T06:58:04.706Z,55.46
2022-09-06T07:00:37.337Z,54.61
2022-09-06T07:03:10.449Z,55.31
2022-09-06T07:08:21.696Z,54.58
2022-09-06T07:10:53.765Z,53.80
2022-09-06T07:13:25.972Z,52.70
2022-09-06T07:16:13.661Z,52.33
2022-09-06T07:18:46.201Z,52.56
2022-09-06T07:24:11.346Z,52.16
2022-09-06T07:26:32.135Z,52.24
2022-09-06T07:29:06.599Z,50.77
2022-09-06T07:34:14.624Z,50.31
2022-09-06T07:36:46.924Z,49.48
2022-09-06T07:39:19.580Z,49.74
2022-09-06T07:41:51.891Z,49.68
2022-09-06T07:44:24.179Z,50.11
2022-09-06T07:49:34.748Z,49.84
2022-09-06T07:54:39.222Z,50.18
2022-09-06T07:57:12.251Z,49.88
2022-09-06T07:59:44.790Z,53.06
2022-09-06T08:02:18.041Z,53.83
2022-09-06T08:04:51.685Z,56.55
2022-09-06T08:07:40.445Z,58.02
2022-09-06T08:09:58.779Z,60.86
2022-09-06T08:12:30.992Z,60.23
2022-09-06T08:15:03.542Z,60.06
2022-09-06T08:17:36.654Z,58.68
2022-09-06T08:20:09.494Z,57.19
2022-09-06T08:22:42.116Z,55.40
2022-09-06T08:25:14.419Z,55.32
2022-09-06T08:27:46.685Z,54.02
2022-09-06T08:30:18.885Z,54.04
2022-09-06T08:32:52.101Z,53.70
2022-09-06T08:35:24.829Z,52.48
2022-09-06T08:38:01.276Z,53.08
2022-09-06T08:40:34.317Z,52.51
2022-09-06T08:43:08.164Z,52.52
2022-09-06T08:45:42.460Z,52.56
2022-09-06T08:48:14.867Z,52.70
2022-09-06T08:50:50.176Z,51.93
2022-09-06T08:53:22.624Z,50.15
2022-09-06T08:55:57.894Z,50.65
2022-09-06T08:58:45.783Z,48.26
2022-09-06T09:01:25.479Z,47.30
2022-09-06T09:04:00.054Z,47.26
2022-09-06T09:06:33.269Z,46.79
2022-09-06T09:09:09.931Z,48.29
2022-09-06T09:11:48.290Z,49.75
2022-09-06T09:14:33.746Z,50.16
2022-09-06T09:17:08.737Z,51.32
2022-09-06T09:19:43.081Z,50.08
2022-09-06T09:22:18.201Z,49.84
2022-09-06T09:24:51.974Z,52.28
2022-09-06T09:27:26.903Z,50.94
2022-09-06T09:32:38.072Z,49.47
2022-09-06T09:35:22.375Z,49.82
2022-09-06T09:38:10.845Z,48.72
2022-09-06T09:40:52.253Z,49.13
2022-09-06T09:43:29.635Z,53.46
2022-09-06T09:46:16.926Z,54.99
2022-09-06T09:49:10.440Z,58.16
2022-09-06T09:51:48.128Z,59.61
2022-09-06T09:54:23.466Z,62.09
2022-09-06T09:56:58.099Z,59.33
2022-09-06T09:59:30.777Z,58.78
2022-09-06T10:02:05.387Z,56.23
2022-09-06T10:07:16.692Z,55.97
2022-09-06T10:10:01.049Z,53.28
2022-09-06T10:12:41.774Z,53.01
2022-09-06T10:15:16.165Z,51.95
2022-09-06T10:17:53.010Z,50.97
2022-09-06T10:20:28.130Z,50.40
2022-09-06T10:23:09.299Z,50.57
2022-09-06T10:25:50.052Z,51.16
2022-09-06T10:28:33.738Z,52.55
2022-09-06T10:31:27.384Z,52.92
2022-09-06T10:34:05.389Z,52.21
2022-09-06T10:36:44.432Z,52.14
2022-09-06T10:39:42.173Z,53.54
2022-09-06T10:42:36.692Z,53.90
2022-09-06T10:45:38.939Z,53.31
2022-09-06T10:48:15.113Z,53.70
2022-09-06T10:50:58.948Z,53.97
2022-09-06T10:53:37.676Z,54.93
2022-09-06T10:56:29.187Z,54.54
2022-09-06T11:02:04.170Z,53.69
2022-09-06T11:07:18.871Z,52.22
2022-09-06T11:09:54.010Z,52.31
2022-09-06T11:12:43.381Z,53.61
2022-09-06T11:15:17.826Z,54.03
2022-09-06T11:18:10.990Z,54.93
2022-09-06T11:21:16.316Z,55.26
2022-09-06T11:24:05.055Z,55.93
2022-09-06T11:26:45.493Z,55.01
2022-09-06T11:29:26.335Z,55.12
2022-09-06T11:32:17.358Z,54.65
2022-09-06T11:34:37.495Z,54.49
2022-09-06T11:37:12.240Z,55.29
2022-09-06T11:42:34.640Z,53.70
2022-09-06T11:45:09.820Z,53.59
2022-09-06T11:47:44.195Z,52.51
2022-09-06T11:50:26.043Z,51.87
2022-09-06T11:53:00.903Z,51.18
2022-09-06T11:55:42.463Z,54.80
2022-09-06T11:58:20.456Z,54.59
2022-09-06T12:01:16.806Z,57.11
2022-09-06T12:04:09.436Z,58.96
2022-09-06T12:06:44.939Z,60.53
2022-09-06T12:09:31.957Z,61.12
2022-09-06T12:12:05.086Z,62.56
2022-09-06T12:14:43.160Z,63.08
2022-09-06T12:17:20.958Z,66.10
2022-09-06T12:20:08.523Z,63.33
2022-09-06T12:22:43.817Z,65.50
2022-09-06T12:25:21.899Z,63.37
2022-09-06T12:28:02.674Z,62.77
2022-09-06T12:30:42.365Z,61.69
2022-09-06T12:33:20.624Z,60.84
2022-09-06T12:38:30.391Z,59.84
2022-09-06T12:41:04.632Z,59.79
2022-09-06T12:43:37.839Z,60.28
2022-09-06T12:46:09.672Z,59.11
2022-09-06T12:48:43.657Z,60.99
2022-09-06T12:51:23.716Z,63.16
2022-09-06T12:54:05.149Z,62.82
2022-09-06T12:56:37.365Z,62.52
2022-09-06T12:59:15.342Z,64.36
2022-09-06T13:01:50.799Z,64.81
2022-09-06T13:04:29.203Z,62.96
2022-09-06T13:07:04.514Z,64.55
2022-09-06T13:09:38.707Z,62.39
2022-09-06T13:12:14.311Z,61.40
2022-09-06T13:14:46.853Z,60.05
2022-09-06T13:17:30.349Z,58.48
2022-09-06T13:20:21.252Z,58.20
2022-09-06T13:22:55.106Z,56.04
2022-09-06T13:25:28.066Z,54.75
2022-09-06T13:28:03.050Z,55.21
2022-09-06T13:30:45.835Z,53.79
2022-09-06T13:33:26.092Z,53.38
2022-09-06T13:36:16.073Z,55.04
2022-09-06T13:38:49.103Z,54.87
2022-09-06T13:41:30.511Z,54.73
2022-09-06T13:44:22.089Z,56.10
2022-09-06T13:46:55.398Z,56.60
2022-09-06T13:49:28.473Z,57.06
2022-09-06T13:52:04.322Z,57.21
2022-09-06T13:54:36.950Z,57.72
2022-09-06T13:57:10.016Z,57.66
2022-09-06T13:59:43.159Z,58.67
2022-09-06T14:02:20.425Z,58.58
2022-09-06T14:04:52.509Z,59.10
2022-09-06T14:07:24.743Z,58.10
2022-09-06T14:09:56.809Z,55.84
2022-09-06T14:12:29.518Z,57.76
2022-09-06T14:15:02.055Z,56.51
2022-09-06T14:17:34.840Z,55.49
2022-09-06T14:20:07.674Z,55.30
2022-09-06T14:22:40.961Z,54.48
2022-09-06T14:25:13.631Z,54.30
2022-09-06T14:27:47.491Z,54.07
2022-09-06T14:30:19.971Z,54.48
2022-09-06T14:32:53.181Z,53.24
2022-09-06T14:35:25.413Z,51.98
2022-09-06T14:37:57.713Z,51.94
2022-09-06T14:40:29.873Z,51.78
2022-09-06T14:43:02.038Z,51.01
2022-09-06T14:45:37.698Z,50.28
2022-09-06T14:48:09.758Z,49.20
2022-09-06T14:50:41.845Z,48.57
2022-09-06T14:53:38.766Z,48.10
2022-09-06T14:55:50.601Z,48.46
2022-09-06T14:58:22.951Z,49.03
2022-09-06T15:00:55.081Z,49.40
2022-09-06T15:03:27.378Z,50.49
2022-09-06T15:05:59.930Z,50.93
2022-09-06T15:08:32.114Z,50.25
2022-09-06T15:11:05.518Z,49.29
2022-09-06T15:13:38.098Z,49.95
2022-09-06T15:16:11.842Z,50.11
2022-09-06T15:18:44.044Z,51.15
2022-09-06T15:21:18.818Z,51.49
2022-09-06T15:23:52.827Z,51.37
2022-09-06T15:26:25.376Z,51.76
2022-09-06T15:28:57.450Z,51.74
2022-09-06T15:31:30.117Z,51.14
2022-09-06T15:34:02.976Z,50.84
2022-09-06T15:36:36.023Z,51.08
2022-09-06T15:39:08.678Z,51.37
2022-09-06T15:41:41.553Z,51.14
2022-09-06T15:44:16.178Z,51.27
2022-09-06T15:46:55.442Z,52.13
2022-09-06T15:49:32.349Z,52.07
2022-09-06T15:52:06.746Z,52.78
2022-09-06T15:54:56.925Z,53.29
2022-09-06T15:57:29.547Z,53.01
2022-09-06T16:00:03.082Z,53.27
2022-09-06T16:02:36.272Z,53.92
2022-09-06T16:05:09.409Z,53.75
2022-09-06T16:07:43.694Z,54.23
2022-09-06T16:10:18.054Z,54.36
2022-09-06T16:12:51.873Z,53.54
2022-09-06T16:15:25.022Z,53.81
2022-09-06T16:17:58.283Z,54.23
2022-09-06T16:20:33.348Z,54.54
2022-09-06T16:23:04.433Z,55.06
2022-09-06T16:25:36.809Z,56.22
2022-09-06T16:28:09.447Z,56.32
2022-09-06T16:30:45.403Z,56.53
2022-09-06T16:33:17.911Z,56.96
2022-09-06T16:35:50.944Z,58.15
2022-09-06T16:38:23.542Z,59.46
2022-09-06T16:40:56.486Z,59.78
2022-09-06T16:43:29.461Z,62.06
2022-09-06T16:46:04.512Z,60.71
2022-09-06T16:48:38.224Z,59.91
2022-09-06T16:51:19.025Z,60.42
2022-09-06T16:53:52.202Z,60.76
2022-09-06T16:56:27.884Z,60.74
2022-09-06T16:59:01.847Z,62.30
2022-09-06T17:01:36.984Z,63.42
2022-09-06T17:04:10.123Z,62.88
2022-09-06T17:06:45.180Z,61.08
2022-09-06T17:09:20.362Z,61.08
2022-09-06T17:11:51.623Z,61.49
2022-09-06T17:14:24.199Z,59.82
2022-09-06T17:17:06.391Z,61.03
2022-09-06T17:19:44.384Z,61.06
2022-09-06T17:22:17.490Z,61.48
2022-09-06T17:24:50.408Z,61.71
2022-09-06T17:27:24.124Z,61.65
2022-09-06T17:29:57.024Z,60.56
2022-09-06T17:32:29.706Z,61.77
2022-09-06T17:35:03.900Z,61.04
2022-09-06T17:37:39.495Z,61.09
2022-09-06T17:40:13.107Z,60.70
2022-09-06T17:42:46.180Z,59.97
2022-09-06T17:45:18.880Z,60.00
2022-09-06T17:47:51.495Z,60.03
2022-09-06T17:50:24.038Z,60.19
2022-09-06T17:52:56.904Z,59.54
2022-09-06T17:55:30.886Z,59.39
2022-09-06T17:58:03.316Z,58.92
2022-09-06T18:00:37.722Z,58.51
2022-09-06T18:03:09.425Z,58.38
2022-09-06T18:05:41.528Z,57.98
2022-09-06T18:08:13.603Z,58.83
2022-09-06T18:10:46.277Z,58.43
2022-09-06T18:13:18.466Z,58.43
2022-09-06T18:15:50.616Z,57.98
2022-09-06T18:18:22.730Z,58.51
2022-09-06T18:20:55.031Z,58.50
2022-09-06T18:23:27.400Z,58.65
2022-09-06T18:26:02.036Z,58.60
2022-09-06T18:28:35.001Z,58.47
2022-09-06T18:31:09.366Z,58.23
2022-09-06T18:33:42.824Z,58.08
2022-09-06T18:36:16.325Z,58.22
2022-09-06T18:38:48.797Z,58.28
2022-09-06T18:41:38.915Z,58.13
2022-09-06T18:44:11.709Z,58.61
2022-09-06T18:46:44.250Z,58.52
2022-09-06T18:49:17.658Z,58.46
2022-09-06T18:51:50.424Z,58.27
2022-09-06T18:54:23.256Z,58.76
2022-09-06T18:56:55.404Z,58.49
2022-09-06T18:59:27.669Z,58.52
2022-09-06T19:02:00.615Z,58.31
2022-09-06T19:04:32.851Z,58.17
2022-09-06T19:07:05.270Z,57.85
2022-09-06T19:09:37.509Z,58.18
2022-09-06T19:12:11.697Z,58.48
2022-09-06T19:14:44.055Z,58.79
2022-09-06T19:17:15.882Z,58.36
2022-09-06T19:19:48.204Z,58.59
2022-09-06T19:22:21.885Z,58.87
2022-09-06T19:24:54.302Z,59.23
2022-09-06T19:27:27.453Z,59.26
2022-09-06T19:29:59.515Z,59.28
2022-09-06T19:32:34.197Z,59.58
2022-09-06T19:35:06.650Z,59.16
2022-09-06T19:37:39.035Z,59.56
2022-09-06T19:40:11.905Z,59.88
2022-09-06T19:42:44.356Z,59.54
2022-09-06T19:45:16.498Z,59.18
2022-09-06T19:47:48.520Z,58.71
2022-09-06T19:50:20.898Z,58.75
2022-09-06T19:52:53.183Z,58.60
2022-09-06T19:55:25.145Z,58.88
2022-09-06T19:57:57.848Z,58.66
2022-09-06T20:00:34.786Z,58.65
2022-09-06T20:03:03.730Z,58.78
2022-09-06T20:05:36.389Z,58.91
2022-09-06T20:08:08.632Z,59.01
2022-09-06T20:10:40.926Z,59.14
2022-09-06T20:13:13.054Z,58.89
2022-09-06T20:15:45.146Z,59.45
2022-09-06T20:18:18.874Z,59.34
2022-09-06T20:21:01.143Z,59.37
2022-09-06T20:23:34.860Z,58.77
2022-09-06T20:26:15.148Z,59.00
2022-09-06T20:28:48.112Z,58.99
2022-09-06T20:31:20.977Z,58.61
2022-09-06T20:33:53.382Z,58.67
2022-09-06T20:36:25.427Z,59.10
2022-09-06T20:38:57.907Z,58.36
2022-09-06T20:41:30.452Z,58.58
2022-09-06T20:44:02.938Z,58.34
2022-09-06T20:46:36.243Z,58.47
2022-09-06T20:49:09.178Z,58.37
2022-09-06T20:51:43.362Z,58.72
2022-09-06T20:54:16.467Z,59.13
2022-09-06T20:56:49.453Z,58.87
2022-09-06T20:59:22.957Z,58.27
2022-09-06T21:01:56.111Z,58.52
2022-09-06T21:04:28.311Z,58.71
2022-09-06T21:07:00.573Z,58.74
2022-09-06T21:09:32.990Z,58.76
2022-09-06T21:12:06.663Z,58.63
2022-09-06T21:14:38.813Z,59.33
2022-09-06T21:17:11.650Z,59.05
2022-09-06T21:19:43.990Z,58.92
2022-09-06T21:22:16.090Z,58.79
2022-09-06T21:24:49.299Z,59.17
2022-09-06T21:27:21.433Z,59.04
2022-09-06T21:29:53.791Z,59.16
2022-09-06T21:32:26.970Z,59.38
2022-09-06T21:34:59.062Z,59.34
2022-09-06T21:37:33.978Z,59.38
2022-09-06T21:40:06.626Z,59.72
2022-09-06T21:42:38.691Z,59.83
2022-09-06T21:45:11.586Z,59.73
2022-09-06T21:47:43.593Z,59.41
2022-09-06T21:50:15.851Z,59.67
2022-09-06T21:52:48.038Z,59.78
2022-09-06T21:55:20.326Z,59.60
2022-09-06T21:57:54.351Z,59.54
2022-09-06T22:00:26.557Z,59.56
2022-09-06T22:02:59.144Z,60.04
2022-09-06T22:05:31.802Z,60.42
2022-09-06T22:08:04.210Z,60.40
2022-09-06T22:10:36.227Z,60.53
2022-09-06T22:13:08.477Z,60.73
2022-09-06T22:15:41.395Z,60.66
2022-09-06T22:18:14.076Z,60.64
2022-09-06T22:20:46.296Z,60.65
2022-09-06T22:23:18.422Z,60.70
2022-09-06T22:25:52.167Z,60.66
2022-09-06T22:28:24.469Z,60.50
2022-09-06T22:30:56.742Z,60.68
2022-09-06T22:33:29.452Z,60.48
2022-09-06T22:36:01.805Z,60.88
2022-09-06T22:38:34.257Z,61.23
2022-09-06T22:41:06.646Z,60.82
2022-09-06T22:43:38.777Z,61.16
2022-09-06T22:46:13.935Z,61.62
2022-09-06T22:48:46.119Z,61.69
2022-09-06T22:51:18.665Z,64.36
2022-09-06T22:53:50.946Z,64.78
2022-09-06T22:56:23.101Z,66.86
2022-09-06T22:58:55.184Z,66.85
2022-09-06T23:01:27.384Z,67.45
2022-09-06T23:03:59.747Z,67.46
2022-09-06T23:06:31.791Z,68.05
2022-09-06T23:09:05.038Z,67.62
2022-09-06T23:11:37.205Z,67.38
2022-09-06T23:14:09.271Z,67.69
2022-09-06T23:16:41.680Z,68.72
2022-09-06T23:19:15.295Z,68.56
2022-09-06T23:21:47.811Z,69.48
2022-09-06T23:24:19.823Z,69.90
2022-09-06T23:26:53.829Z,69.53
2022-09-06T23:29:25.945Z,69.24
2022-09-06T23:31:58.077Z,68.45
2022-09-06T23:34:31.232Z,68.80
2022-09-06T23:37:03.427Z,67.79
2022-09-06T23:39:35.502Z,69.15
2022-09-06T23:42:07.914Z,69.10
2022-09-06T23:44:40.031Z,69.34
2022-09-06T23:47:12.176Z,69.60
2022-09-06T23:49:45.572Z,68.85
2022-09-06T23:52:17.941Z,68.62
2022-09-06T23:54:50.468Z,68.41
2022-09-06T23:57:22.584Z,69.44
2022-09-06T23:59:54.648Z,68.24
